Delta, Wisconsin
Current Conditions -  °F | °C
As of 10:10 PM on Sunday 21 Dec 2014 (Local Time) from KASX Reporting Station
Overcast Overcast  
Wind Chill: 30°   Ceiling: 2200
Heat Index: 34°   Visibility: 10mi
Dew Point: 33°   Wind: 5mph
Humidity: 96%   Direction: 160°SSE
Pressure: 29.78"   Gusts: NA
Location:  46.4275°N, 91.0942°W
Report Text: KASX 220410Z AUTO 16004KT 10SM BKN022 OVC034 01/01 A2978 RMK AO2 T00110006
Loading
Personal Weather Stations






























Interactive Weather Map New forecast layout! Learn more

10-Day Weather Forecast

Advertisements
Track Severe Weather on mobile